Time;durP1;ratioP1;P1;durP2;ratioP2;P2;SDS_P1;SDS_P2;PMS_P1;PMS_P2;Temp;Humidity;BMP_temperature;BMP_pressure;BME280_temperature;BME280_humidity;BME280_pressure;Samples;Min_cycle;Max_cycle;Signal;HPM_P1;HPM_P2
2022/08/17 00:01:19;;;;;;;1.25;0.80;;;14.40;99.90;;;;;;4991250;28;20435;-73
2022/08/17 00:03:48;;;;;;;1.20;0.70;;;14.50;99.90;;;;;;4985842;28;20416;-71
2022/08/17 00:06:24;;;;;;;2.50;0.65;;;14.60;99.90;;;;;;4980058;28;20405;-72
2022/08/17 00:08:52;;;;;;;2.92;0.75;;;14.80;99.20;;;;;;4983717;28;20408;-72
2022/08/17 00:11:24;;;;;;;2.58;0.63;;;15.00;97.80;;;;;;4974074;28;20387;-73
2022/08/17 00:13:56;;;;;;;3.03;0.80;;;15.00;97.30;;;;;;4993529;28;20931;-73
2022/08/17 00:16:31;;;;;;;0.88;0.60;;;15.20;95.90;;;;;;4995467;28;20385;-72
2022/08/17 00:19:04;;;;;;;2.10;0.73;;;15.20;95.10;;;;;;4991700;28;20369;-72
2022/08/17 00:21:34;;;;;;;1.20;0.70;;;15.30;94.70;;;;;;4997632;28;20381;-72
2022/08/17 00:24:01;;;;;;;1.60;0.75;;;15.40;94.50;;;;;;4991498;28;20404;-72
2022/08/17 00:26:28;;;;;;;3.33;0.73;;;15.40;94.30;;;;;;4991602;28;20381;-72
2022/08/17 00:28:56;;;;;;;2.33;0.85;;;15.50;94.20;;;;;;4991437;28;20777;-71
2022/08/17 00:31:23;;;;;;;1.40;0.80;;;15.50;92.80;;;;;;4991918;28;20457;-73
2022/08/17 00:33:52;;;;;;;1.67;0.70;;;15.50;92.50;;;;;;4991549;28;20752;-73
2022/08/17 00:36:22;;;;;;;2.10;0.70;;;15.70;93.30;;;;;;4991562;28;20416;-73
2022/08/17 00:38:50;;;;;;;1.33;0.70;;;15.80;92.20;;;;;;4991633;28;20969;-73
2022/08/17 00:41:21;;;;;;;3.42;0.80;;;15.80;91.50;;;;;;4991272;28;20381;-72
2022/08/17 00:43:52;;;;;;;3.20;1.00;;;15.90;91.00;;;;;;4991494;28;20427;-73
2022/08/17 00:46:27;;;;;;;2.20;0.90;;;15.90;90.90;;;;;;4991261;28;20710;-73
2022/08/17 00:48:55;;;;;;;3.35;1.00;;;16.10;90.40;;;;;;4991278;28;20417;-72
2022/08/17 00:51:40;;;;;;;1.88;0.75;;;16.20;88.30;;;;;;4991192;28;20381;-73
2022/08/17 00:54:19;;;;;;;3.58;1.40;;;16.20;89.10;;;;;;4991408;28;20376;-73
2022/08/17 00:56:52;;;;;;;3.00;1.00;;;16.40;87.20;;;;;;4978865;28;20509;-72
2022/08/17 00:59:21;;;;;;;2.30;0.80;;;16.40;89.10;;;;;;4991413;28;20377;-71
2022/08/17 01:01:50;;;;;;;1.05;0.60;;;16.60;86.50;;;;;;4991504;28;20373;-71
2022/08/17 01:04:19;;;;;;;3.75;0.95;;;16.80;84.60;;;;;;4973599;28;20400;-72
2022/08/17 01:06:48;;;;;;;1.42;0.80;;;16.80;83.70;;;;;;4974387;28;20389;-72
2022/08/17 01:09:17;;;;;;;2.97;0.82;;;16.90;84.20;;;;;;4991430;28;20469;-73
2022/08/17 01:11:45;;;;;;;1.42;0.75;;;16.90;82.80;;;;;;4991924;28;20793;-72
2022/08/17 01:14:13;;;;;;;1.33;0.70;;;16.90;82.30;;;;;;4992108;28;20438;-73
2022/08/17 01:16:40;;;;;;;4.40;0.93;;;17.00;82.90;;;;;;4991684;28;20419;-72
2022/08/17 01:19:35;;;;;;;1.17;0.70;;;17.00;83.20;;;;;;5008253;28;20391;-72
2022/08/17 01:22:13;;;;;;;4.85;1.00;;;17.20;81.60;;;;;;5010276;28;20440;-72
2022/08/17 01:24:46;;;;;;;1.92;0.70;;;17.20;81.00;;;;;;5002850;28;20718;-72
2022/08/17 01:27:15;;;;;;;0.80;0.80;;;17.50;81.70;;;;;;4991167;28;20373;-72
2022/08/17 01:29:46;;;;;;;2.33;0.82;;;18.30;77.20;;;;;;4991479;28;20412;-72
2022/08/17 01:32:14;;;;;;;1.95;0.85;;;19.00;75.10;;;;;;4991025;28;20408;-73
2022/08/17 01:34:42;;;;;;;3.00;0.80;;;19.50;72.20;;;;;;4991147;28;20392;-73
2022/08/17 01:37:09;;;;;;;1.80;0.80;;;20.10;68.90;;;;;;4991084;28;20384;-74
2022/08/17 01:39:47;;;;;;;1.70;0.80;;;20.20;64.80;;;;;;4990914;28;20384;-72
2022/08/17 01:42:23;;;;;;;1.38;0.60;;;20.50;62.90;;;;;;4991110;28;20456;-73
2022/08/17 01:44:55;;;;;;;3.50;0.70;;;20.50;60.60;;;;;;4978167;28;20462;-73
2022/08/17 01:47:23;;;;;;;2.50;0.80;;;21.10;59.70;;;;;;4991093;28;20722;-73
2022/08/17 01:49:50;;;;;;;0.88;0.68;;;21.60;58.60;;;;;;4980167;28;20789;-73
2022/08/17 01:52:17;;;;;;;1.58;0.70;;;21.70;58.00;;;;;;4994852;28;20377;-73
2022/08/17 01:54:47;;;;;;;0.70;0.70;;;22.00;57.50;;;;;;4994576;28;20952;-72
2022/08/17 01:57:14;;;;;;;2.40;0.75;;;21.80;58.70;;;;;;4994511;28;20392;-73
2022/08/17 01:59:41;;;;;;;1.00;0.70;;;21.90;58.30;;;;;;4994250;28;20388;-73
2022/08/17 02:02:09;;;;;;;1.13;0.60;;;22.20;58.00;;;;;;4994397;28;20837;-73
2022/08/17 02:04:36;;;;;;;1.08;0.73;;;22.60;56.00;;;;;;4994067;28;20431;-73
2022/08/17 02:07:03;;;;;;;2.72;0.75;;;23.00;54.60;;;;;;4994680;28;20396;-73
2022/08/17 02:09:31;;;;;;;2.70;0.70;;;23.60;53.20;;;;;;4994213;28;20404;-74
2022/08/17 02:12:01;;;;;;;2.50;0.70;;;24.00;52.30;;;;;;4992038;28;20422;-73
2022/08/17 02:14:28;;;;;;;2.55;0.50;;;24.00;50.30;;;;;;4983468;28;21253;-73
2022/08/17 02:16:55;;;;;;;2.70;0.70;;;23.00;51.70;;;;;;4993785;28;20373;-73
2022/08/17 02:19:22;;;;;;;2.55;0.70;;;22.90;53.00;;;;;;4993540;28;20950;-74
2022/08/17 02:21:51;;;;;;;4.00;0.70;;;23.40;51.80;;;;;;4995094;28;20383;-74
2022/08/17 02:24:28;;;;;;;1.50;0.70;;;23.80;51.40;;;;;;4997039;28;20904;-75
2022/08/17 02:26:55;;;;;;;2.72;0.90;;;23.80;50.10;;;;;;4994059;28;20509;-75
2022/08/17 02:29:22;;;;;;;1.67;0.70;;;23.40;50.40;;;;;;5005157;28;20791;-75
2022/08/17 02:31:50;;;;;;;1.00;0.60;;;22.80;50.90;;;;;;4992758;28;20819;-74
2022/08/17 02:34:17;;;;;;;1.05;0.60;;;22.10;51.30;;;;;;4993535;28;20403;-74
2022/08/17 02:36:44;;;;;;;0.80;0.63;;;21.40;52.70;;;;;;4993073;28;20464;-74
2022/08/17 02:39:12;;;;;;;5.10;1.08;;;21.30;53.90;;;;;;4993455;28;20994;-74
2022/08/17 02:41:40;;;;;;;2.30;0.90;;;21.50;54.10;;;;;;4993796;28;20420;-75
2022/08/17 02:44:07;;;;;;;1.90;0.60;;;21.90;53.60;;;;;;4992701;28;20397;-75
2022/08/17 02:46:34;;;;;;;3.67;0.88;;;22.30;52.80;;;;;;4993413;28;20412;-74
2022/08/17 02:49:02;;;;;;;1.95;0.70;;;22.80;52.20;;;;;;4993119;28;20484;-74
2022/08/17 02:51:29;;;;;;;3.25;0.60;;;23.10;51.70;;;;;;4993087;28;20388;-74
2022/08/17 02:53:56;;;;;;;1.45;0.50;;;23.60;49.30;;;;;;4993647;28;20447;-75
2022/08/17 02:56:23;;;;;;;1.35;0.60;;;23.50;48.60;;;;;;4993444;28;20384;-75
2022/08/17 02:58:50;;;;;;;1.35;0.50;;;23.30;48.70;;;;;;4992859;28;20389;-75
2022/08/17 03:01:17;;;;;;;0.50;0.50;;;23.10;47.90;;;;;;4991815;28;20739;-72
2022/08/17 03:03:44;;;;;;;1.25;0.50;;;22.60;46.80;;;;;;4993474;28;20395;-72
2022/08/17 03:06:12;;;;;;;1.30;0.50;;;22.60;47.90;;;;;;4993126;28;20380;-73
2022/08/17 03:08:39;;;;;;;0.77;0.57;;;22.70;49.00;;;;;;4993403;28;20401;-73
2022/08/17 03:11:06;;;;;;;3.83;0.70;;;23.00;49.40;;;;;;4992582;28;20385;-73
2022/08/17 03:13:33;;;;;;;0.40;0.40;;;23.20;49.10;;;;;;4978928;28;20782;-73
2022/08/17 03:16:00;;;;;;;1.00;0.50;;;23.40;47.80;;;;;;4993028;28;20416;-73
2022/08/17 03:18:28;;;;;;;1.30;0.52;;;23.10;48.40;;;;;;4992391;28;20400;-74
2022/08/17 03:20:58;;;;;;;2.00;0.70;;;23.00;48.60;;;;;;4992206;28;20381;-73
2022/08/17 03:23:26;;;;;;;1.00;0.60;;;23.50;48.90;;;;;;4993069;28;20891;-73
2022/08/17 03:25:54;;;;;;;0.70;0.50;;;24.40;47.20;;;;;;4991873;28;20452;-73
2022/08/17 03:28:22;;;;;;;2.63;0.67;;;25.00;44.90;;;;;;4992343;28;20896;-73
2022/08/17 03:30:50;;;;;;;1.43;0.60;;;24.90;46.00;;;;;;4992698;28;20385;-74
2022/08/17 03:33:18;;;;;;;1.63;0.80;;;24.90;45.10;;;;;;4992745;28;20369;-73
2022/08/17 03:35:46;;;;;;;2.60;0.60;;;24.50;45.50;;;;;;4992015;28;20911;-74
2022/08/17 03:38:15;;;;;;;0.60;0.60;;;24.10;45.80;;;;;;4989949;28;20482;-74
2022/08/17 03:40:47;;;;;;;0.90;0.60;;;23.90;46.10;;;;;;4992090;28;20393;-72
2022/08/17 03:43:15;;;;;;;0.80;0.50;;;23.80;46.40;;;;;;4993403;28;20884;-73
2022/08/17 03:56:57;;;;;;;2.42;0.60;;;25.10;44.90;;;;;;4992727;28;20367;-74
2022/08/17 03:59:25;;;;;;;11.02;1.40;;;25.10;45.80;;;;;;5004197;28;20382;-73
2022/08/17 04:01:55;;;;;;;4.10;0.93;;;25.20;46.20;;;;;;5000690;28;20482;-73
2022/08/17 04:04:22;;;;;;;7.07;0.90;;;25.50;45.60;;;;;;4996204;28;20419;-74
2022/08/17 04:06:49;;;;;;;1.63;0.63;;;25.60;45.20;;;;;;4996810;28;20473;-74
2022/08/17 04:09:16;;;;;;;1.85;0.60;;;26.00;44.70;;;;;;4986525;28;20810;-76
2022/08/17 04:11:44;;;;;;;1.70;0.60;;;25.50;44.10;;;;;;5001494;28;20396;-73
2022/08/17 04:14:11;;;;;;;3.03;0.70;;;24.90;45.80;;;;;;4986099;28;20401;-76
2022/08/17 04:16:38;;;;;;;3.30;0.80;;;25.00;46.20;;;;;;4989185;28;20393;-74
2022/08/17 04:19:07;;;;;;;3.00;0.80;;;25.10;44.90;;;;;;4988997;28;20443;-75
2022/08/17 04:21:34;;;;;;;4.90;0.80;;;25.20;45.80;;;;;;4992032;28;20857;-75
2022/08/17 04:24:02;;;;;;;3.30;0.90;;;25.90;45.00;;;;;;4991126;28;20396;-75
2022/08/17 04:26:29;;;;;;;2.85;0.90;;;26.20;43.90;;;;;;4990255;28;20377;-74
2022/08/17 04:28:57;;;;;;;2.15;0.70;;;26.20;44.30;;;;;;4991162;28;20922;-74
2022/08/17 04:31:25;;;;;;;2.08;0.70;;;25.80;43.10;;;;;;4991216;28;20403;-74
2022/08/17 04:33:53;;;;;;;2.17;0.77;;;25.20;45.00;;;;;;4991389;28;20820;-77
2022/08/17 04:36:20;;;;;;;1.50;0.70;;;25.60;44.50;;;;;;4991211;28;20479;-76
2022/08/17 04:38:48;;;;;;;1.10;0.57;;;26.50;43.60;;;;;;4990905;28;20397;-75
2022/08/17 04:44:03;;;;;;;1.63;0.70;;;26.90;42.30;;;;;;4991403;28;20399;-74
2022/08/17 04:46:33;;;;;;;3.05;0.60;;;27.00;42.30;;;;;;4991533;28;20384;-74
2022/08/17 04:49:04;;;;;;;1.75;0.60;;;27.20;41.60;;;;;;4991023;28;20467;-73
2022/08/17 04:51:37;;;;;;;1.70;0.60;;;26.70;41.80;;;;;;4986025;28;21699;-74
2022/08/17 04:54:12;;;;;;;10.23;0.90;;;26.10;43.30;;;;;;4990888;28;20894;-73
2022/08/17 04:56:40;;;;;;;1.38;0.70;;;26.30;43.30;;;;;;4990064;28;20431;-74
2022/08/17 04:59:11;;;;;;;3.13;0.70;;;26.00;43.20;;;;;;4990749;28;20861;-75
2022/08/17 05:01:40;;;;;;;1.92;0.60;;;26.00;43.20;;;;;;4990452;28;20423;-77
2022/08/17 05:04:11;;;;;;;5.10;0.68;;;26.50;43.00;;;;;;4993867;28;20438;-75
2022/08/17 05:06:39;;;;;;;2.53;0.68;;;26.80;41.50;;;;;;4989603;28;20417;-76
2022/08/17 05:09:06;;;;;;;2.10;0.60;;;26.50;41.20;;;;;;4973518;28;20487;-75
2022/08/17 05:11:34;;;;;;;1.20;0.57;;;26.20;41.60;;;;;;4990528;28;20773;-76
2022/08/17 05:14:01;;;;;;;3.63;0.60;;;26.30;41.50;;;;;;4989706;28;20396;-75
2022/08/17 05:16:29;;;;;;;3.13;0.70;;;26.30;41.10;;;;;;4990430;28;20883;-75
2022/08/17 05:18:58;;;;;;;5.33;0.80;;;26.40;42.00;;;;;;4990818;28;20726;-73
2022/08/17 05:21:26;;;;;;;2.35;0.68;;;26.60;41.30;;;;;;4990871;28;20369;-74
2022/08/17 05:23:54;;;;;;;3.22;0.80;;;26.40;41.20;;;;;;4983635;28;20390;-74
2022/08/17 05:26:21;;;;;;;6.70;1.10;;;26.10;41.70;;;;;;4990899;28;20459;-74
2022/08/17 05:28:48;;;;;;;3.03;0.60;;;25.80;42.10;;;;;;4990646;28;20436;-74
2022/08/17 05:31:16;;;;;;;3.92;1.30;;;25.90;41.20;;;;;;4990778;28;20465;-73
2022/08/17 05:33:43;;;;;;;1.70;0.60;;;26.30;41.50;;;;;;4990788;28;20733;-74
2022/08/17 05:36:14;;;;;;;2.92;0.60;;;26.20;40.20;;;;;;4990674;28;20514;-74
2022/08/17 05:38:41;;;;;;;0.70;0.60;;;25.70;40.80;;;;;;4989453;28;20443;-74
2022/08/17 05:41:09;;;;;;;1.73;0.70;;;24.90;41.50;;;;;;4991782;28;20397;-74
2022/08/17 05:43:41;;;;;;;2.80;0.70;;;24.00;42.80;;;;;;4986116;28;20439;-74
2022/08/17 05:46:14;;;;;;;2.10;0.80;;;23.30;44.40;;;;;;4990737;28;20391;-74
2022/08/17 05:48:47;;;;;;;3.50;0.90;;;22.40;46.40;;;;;;4981619;28;20876;-74
2022/08/17 05:51:20;;;;;;;2.70;0.90;;;21.70;48.00;;;;;;4990538;28;20488;-73
2022/08/17 05:54:00;;;;;;;3.35;0.90;;;21.30;48.70;;;;;;4990367;28;20376;-72
2022/08/17 05:56:54;;;;;;;2.00;0.70;;;20.80;50.00;;;;;;4989877;28;20970;-73
2022/08/17 06:00:06;;;;;;;5.10;1.00;;;20.40;50.30;;;;;;4985108;28;20385;-73
2022/08/17 06:02:57;;;;;;;2.70;0.70;;;20.10;51.30;;;;;;4990736;28;20369;-73
2022/08/17 06:05:53;;;;;;;2.80;0.90;;;19.80;52.30;;;;;;4949434;29;20414;-73
2022/08/17 06:08:31;;;;;;;3.72;1.00;;;19.60;52.80;;;;;;4932474;29;20403;-74
2022/08/17 06:11:14;;;;;;;7.93;1.10;;;19.70;52.70;;;;;;4949485;29;20407;-74
2022/08/17 06:13:52;;;;;;;1.50;0.90;;;19.70;52.80;;;;;;4949489;29;20393;-73
2022/08/17 06:16:25;;;;;;;1.80;0.80;;;19.60;52.70;;;;;;4949424;29;20403;-74
2022/08/17 06:19:13;;;;;;;0.88;0.70;;;19.50;53.50;;;;;;4949476;29;20444;-73
2022/08/17 06:21:44;;;;;;;2.80;0.88;;;19.40;53.50;;;;;;4949124;29;20448;-73
2022/08/17 06:24:29;;;;;;;2.00;0.93;;;19.30;54.10;;;;;;4949169;29;20931;-74
2022/08/17 06:27:25;;;;;;;2.47;0.93;;;19.10;54.80;;;;;;4948999;29;20381;-73
2022/08/17 06:29:58;;;;;;;3.03;0.80;;;19.00;54.90;;;;;;4892157;29;20432;-72
2022/08/17 06:32:25;;;;;;;2.85;0.90;;;18.90;55.20;;;;;;4892233;29;20397;-73
2022/08/17 06:34:53;;;;;;;4.43;1.00;;;18.90;56.00;;;;;;4893338;29;20453;-75
2022/08/17 06:37:36;;;;;;;3.50;0.90;;;18.90;56.40;;;;;;4895721;29;20393;-75
2022/08/17 06:40:22;;;;;;;2.95;1.00;;;19.10;56.50;;;;;;4895598;29;20405;-74
2022/08/17 06:43:11;;;;;;;2.75;0.77;;;19.00;56.20;;;;;;4897630;29;20407;-73
2022/08/17 06:45:48;;;;;;;1.60;0.70;;;18.80;56.80;;;;;;4914078;29;20478;-74
2022/08/17 06:48:37;;;;;;;2.28;0.73;;;18.60;56.60;;;;;;4914188;29;20931;-73
2022/08/17 06:51:14;;;;;;;5.82;1.00;;;18.40;57.10;;;;;;4913945;29;20406;-79
2022/08/17 06:53:47;;;;;;;4.78;1.10;;;18.40;57.10;;;;;;4913881;29;20467;-73
2022/08/17 06:56:40;;;;;;;2.60;0.80;;;18.20;57.20;;;;;;4920213;29;20485;-74
2022/08/17 06:59:10;;;;;;;5.95;1.05;;;18.10;57.90;;;;;;4914733;29;20526;-74
2022/08/17 07:01:41;;;;;;;4.57;1.13;;;17.80;58.40;;;;;;4914768;29;20391;-76
2022/08/17 07:04:22;;;;;;;7.30;2.00;;;17.60;59.40;;;;;;4912661;29;20415;-73
2022/08/17 07:06:58;;;;;;;5.30;1.95;;;17.50;61.70;;;;;;4957766;28;20924;-74
2022/08/17 07:09:26;;;;;;;9.38;2.30;;;17.30;63.80;;;;;;4986554;28;20443;-75
2022/08/17 07:12:04;;;;;;;5.68;2.08;;;17.10;66.10;;;;;;4991239;28;20381;-75
2022/08/17 07:14:40;;;;;;;5.73;1.83;;;16.90;67.90;;;;;;4990397;28;20396;-75
2022/08/17 07:17:14;;;;;;;4.75;2.28;;;16.80;69.20;;;;;;4993043;28;20380;-81
2022/08/17 07:19:44;;;;;;;10.05;2.28;;;16.60;71.00;;;;;;4992989;28;20400;-75
2022/08/17 07:22:17;;;;;;;13.13;2.53;;;16.40;72.60;;;;;;4992234;28;20753;-75
2022/08/17 07:24:55;;;;;;;12.32;2.35;;;16.20;74.30;;;;;;4991359;28;20400;-76
2022/08/17 07:27:31;;;;;;;8.18;2.83;;;16.10;76.70;;;;;;4974311;28;20396;-76
2022/08/17 07:30:21;;;;;;;12.55;4.03;;;15.90;79.70;;;;;;4990054;28;20447;-75
2022/08/17 07:32:53;;;;;;;22.55;17.63;;;15.70;83.30;;;;;;4991793;28;20381;-77
2022/08/17 07:35:28;;;;;;;82.57;55.27;;;15.50;87.60;;;;;;4992585;28;20416;-74
2022/08/17 07:38:29;;;;;;;83.40;57.63;;;15.30;91.00;;;;;;4991294;28;20403;-74
2022/08/17 07:40:57;;;;;;;79.78;55.10;;;15.20;93.10;;;;;;4990252;28;20392;-74
2022/08/17 07:43:41;;;;;;;161.07;109.25;;;15.10;95.70;;;;;;4988605;28;20393;-74
2022/08/17 07:49:11;;;;;;;32.53;20.00;;;14.90;97.00;;;;;;4992281;28;20426;-74
2022/08/17 07:51:47;;;;;;;18.75;10.18;;;14.80;98.60;;;;;;4992111;28;20472;-74
2022/08/17 07:54:36;;;;;;;9.05;3.50;;;14.70;99.00;;;;;;4990854;28;20452;-74
2022/08/17 07:57:12;;;;;;;6.97;2.97;;;14.60;99.90;;;;;;4981938;28;20467;-74
2022/08/17 07:59:59;;;;;;;7.35;3.50;;;14.50;99.90;;;;;;4991492;28;20441;-74
2022/08/17 08:02:51;;;;;;;6.40;2.88;;;14.50;99.90;;;;;;4950483;29;20411;-73
2022/08/17 08:05:25;;;;;;;5.18;2.08;;;14.40;99.90;;;;;;4926121;29;20810;-76
2022/08/17 08:08:00;;;;;;;4.63;1.90;;;14.40;99.90;;;;;;4950700;29;20446;-74
2022/08/17 08:10:34;;;;;;;4.40;1.83;;;14.20;99.90;;;;;;4950474;29;20487;-74
2022/08/17 08:13:15;;;;;;;5.70;1.70;;;14.20;99.90;;;;;;4950889;29;20400;-76
2022/08/17 08:15:48;;;;;;;7.35;2.72;;;14.10;99.90;;;;;;4950581;29;20403;-74
2022/08/17 08:18:34;;;;;;;5.97;2.72;;;14.10;99.90;;;;;;4950867;29;20475;-79
2022/08/17 08:21:11;;;;;;;6.85;2.58;;;14.00;99.90;;;;;;4950970;29;20396;-85
2022/08/17 08:24:03;;;;;;;4.82;2.50;;;13.90;99.90;;;;;;4948928;29;20448;-83
2022/08/17 08:27:14;;;;;;;5.65;2.45;;;13.80;99.90;;;;;;4950789;29;20392;-74
2022/08/17 08:29:52;;;;;;;7.43;2.80;;;13.70;99.90;;;;;;4893365;29;20437;-74
2022/08/17 08:32:48;;;;;;;6.88;2.90;;;13.60;99.90;;;;;;4889304;29;20397;-74
2022/08/17 08:35:39;;;;;;;6.80;3.08;;;13.60;99.90;;;;;;4888077;29;20405;-79
2022/08/17 08:38:22;;;;;;;7.30;3.22;;;13.50;99.90;;;;;;4892950;29;20449;-74
2022/08/17 08:41:01;;;;;;;5.90;2.15;;;13.40;99.90;;;;;;4911483;29;20410;-73
2022/08/17 08:43:45;;;;;;;5.13;3.03;;;13.30;99.90;;;;;;4912044;29;20923;-76
2022/08/17 08:46:50;;;;;;;6.68;2.90;;;13.30;99.90;;;;;;4911750;29;20447;-72
2022/08/17 08:49:30;;;;;;;6.70;2.97;;;13.20;99.90;;;;;;4836408;29;20435;-73
2022/08/17 08:52:01;;;;;;;6.00;2.60;;;13.10;99.90;;;;;;4837367;29;20406;-73
2022/08/17 08:54:52;;;;;;;7.70;2.73;;;13.10;99.90;;;;;;4836895;29;20459;-73
2022/08/17 08:57:26;;;;;;;4.57;2.10;;;13.00;99.90;;;;;;4834555;29;20417;-73
2022/08/17 09:00:34;;;;;;;5.17;2.10;;;12.90;99.90;;;;;;4836596;29;20422;-76
2022/08/17 09:03:21;;;;;;;8.82;2.58;;;12.80;99.90;;;;;;4779203;30;20415;-73
2022/08/17 09:06:29;;;;;;;5.50;2.78;;;12.70;99.90;;;;;;4802963;29;20504;-72
2022/08/17 09:09:08;;;;;;;7.07;3.00;;;12.60;99.90;;;;;;4803529;29;20517;-73
2022/08/17 09:11:54;;;;;;;7.25;3.13;;;12.60;99.90;;;;;;4811301;29;20503;-72
2022/08/17 09:14:56;;;;;;;8.40;3.05;;;12.50;99.90;;;;;;4801643;29;20413;-72
2022/08/17 09:17:39;;;;;;;6.17;2.77;;;12.40;99.90;;;;;;4810732;29;20923;-73
2022/08/17 09:20:24;;;;;;;5.38;2.67;;;12.40;99.90;;;;;;4815950;29;20922;-73
2022/08/17 09:23:09;;;;;;;6.87;2.63;;;12.30;99.90;;;;;;4806712;29;20397;-73
2022/08/17 09:25:55;;;;;;;7.65;2.83;;;12.20;99.90;;;;;;4826342;29;20712;-73
2022/08/17 09:28:29;;;;;;;6.00;2.88;;;12.20;99.90;;;;;;4837156;29;20435;-73
2022/08/17 09:31:02;;;;;;;10.47;3.17;;;12.10;99.90;;;;;;4836134;29;20530;-73
2022/08/17 09:33:35;;;;;;;6.38;2.83;;;12.00;99.90;;;;;;4837483;29;20401;-73
2022/08/17 09:36:11;;;;;;;7.13;2.70;;;12.00;99.90;;;;;;4858105;29;20483;-73
2022/08/17 09:38:53;;;;;;;6.63;2.80;;;11.90;99.90;;;;;;4930756;29;20376;-73
2022/08/17 09:41:41;;;;;;;6.65;2.70;;;11.90;99.90;;;;;;4932704;29;20400;-73
2022/08/17 09:44:34;;;;;;;6.20;2.70;;;11.80;99.90;;;;;;4932627;29;20430;-73
2022/08/17 09:47:11;;;;;;;6.38;2.80;;;11.80;99.90;;;;;;5010693;28;20379;-72
2022/08/17 09:50:19;;;;;;;6.38;2.60;;;11.70;99.90;;;;;;5001666;28;20431;-73
2022/08/17 09:52:47;;;;;;;7.18;2.67;;;11.60;99.90;;;;;;4934339;29;20390;-73
2022/08/17 09:55:14;;;;;;;6.47;2.85;;;11.50;99.90;;;;;;4945102;29;20530;-73
2022/08/17 09:57:57;;;;;;;9.93;3.30;;;11.40;99.90;;;;;;4931467;29;20386;-73
2022/08/17 10:00:32;;;;;;;5.25;3.15;;;11.40;99.90;;;;;;4931062;29;20909;-73
2022/08/17 10:03:27;;;;;;;9.05;3.35;;;11.40;99.90;;;;;;4930821;29;20390;-73
2022/08/17 10:06:12;;;;;;;14.68;12.93;;;11.30;99.90;;;;;;4929607;29;20426;-72
2022/08/17 10:09:17;;;;;;;12.87;4.47;;;11.30;99.90;;;;;;4929663;29;20774;-72
2022/08/17 10:12:30;;;;;;;15.63;5.80;;;11.30;99.90;;;;;;4870314;29;20439;-73
2022/08/17 10:15:26;;;;;;;20.10;8.77;;;11.40;99.90;;;;;;4812645;29;20479;-74
2022/08/17 10:18:36;;;;;;;26.45;14.73;;;11.30;99.90;;;;;;4819363;29;20428;-75
2022/08/17 10:27:14;;;;;;;20.77;9.40;;;11.10;99.90;;;;;;4821412;29;20761;-73
2022/08/17 10:29:44;;;;;;;21.95;9.68;;;11.00;99.90;;;;;;4849815;29;20426;-73
2022/08/17 10:32:18;;;;;;;17.38;9.15;;;11.00;99.90;;;;;;4877077;29;20904;-73
2022/08/17 10:35:03;;;;;;;16.52;7.30;;;10.90;99.90;;;;;;4878056;29;20820;-73
2022/08/17 10:37:59;;;;;;;16.80;6.63;;;10.90;99.90;;;;;;4878475;29;21044;-73
2022/08/17 10:40:37;;;;;;;14.68;6.93;;;10.90;99.90;;;;;;4875916;29;20797;-73
2022/08/17 10:43:17;;;;;;;17.75;6.97;;;10.90;99.90;;;;;;4876973;29;20440;-73
2022/08/17 10:46:03;;;;;;;13.77;5.82;;;10.90;99.90;;;;;;4875995;29;20852;-73
2022/08/17 10:48:37;;;;;;;15.82;6.18;;;10.80;99.90;;;;;;4868034;29;20418;-73
2022/08/17 10:51:37;;;;;;;14.98;5.68;;;10.80;99.90;;;;;;4915608;28;20533;-73
2022/08/17 10:54:07;;;;;;;15.75;5.95;;;10.70;99.90;;;;;;4990347;28;20389;-73
2022/08/17 10:56:44;;;;;;;13.52;5.53;;;10.60;99.90;;;;;;4992605;28;20408;-74
2022/08/17 10:59:34;;;;;;;16.20;5.65;;;10.60;99.90;;;;;;4992171;28;20447;-72
2022/08/17 11:02:19;;;;;;;14.10;6.68;;;10.50;99.90;;;;;;4981104;28;20393;-73
2022/08/17 11:05:08;;;;;;;17.08;6.70;;;10.50;99.90;;;;;;4975424;28;20419;-74
2022/08/17 11:08:04;;;;;;;23.67;7.60;;;10.50;99.90;;;;;;4991906;28;20496;-73
2022/08/17 11:10:55;;;;;;;23.30;7.60;;;10.40;99.90;;;;;;4983408;28;20409;-73
2022/08/17 11:13:46;;;;;;;35.35;8.60;;;10.40;99.90;;;;;;4979409;28;20394;-73
2022/08/17 11:16:37;;;;;;;46.60;9.95;;;10.30;99.90;;;;;;4988870;28;20551;-73
2022/08/17 11:19:25;;;;;;;43.75;11.05;;;10.30;99.90;;;;;;4991655;28;20489;-72
2022/08/17 11:22:01;;;;;;;46.83;10.13;;;10.30;99.90;;;;;;4991511;28;20409;-72
2022/08/17 11:24:31;;;;;;;35.22;8.68;;;10.20;99.90;;;;;;4980258;28;20380;-72
2022/08/17 11:27:26;;;;;;;37.58;9.50;;;10.20;99.90;;;;;;4992298;28;20393;-73
2022/08/17 11:29:57;;;;;;;35.77;9.67;;;10.10;99.90;;;;;;4913682;29;20449;-72
2022/08/17 11:32:30;;;;;;;33.05;9.60;;;10.10;99.90;;;;;;4914801;29;20404;-72
2022/08/17 11:35:20;;;;;;;30.00;14.18;;;10.00;99.90;;;;;;4913341;29;20396;-73
2022/08/17 11:37:52;;;;;;;31.25;13.43;;;10.00;99.90;;;;;;4925513;29;20488;-73
2022/08/17 11:40:41;;;;;;;28.27;13.90;;;9.90;99.90;;;;;;4913445;29;20745;-73
2022/08/17 11:43:19;;;;;;;35.15;16.00;;;9.90;99.90;;;;;;4915578;29;20395;-73
2022/08/17 11:46:14;;;;;;;29.45;12.63;;;9.90;99.90;;;;;;4913567;29;20439;-72
2022/08/17 11:52:11;;;;;;;19.92;7.43;;;9.90;99.90;;;;;;4917146;29;20882;-73
2022/08/17 11:54:44;;;;;;;19.10;7.18;;;9.80;99.90;;;;;;4913164;29;20807;-73
2022/08/17 11:57:26;;;;;;;22.30;7.63;;;9.80;99.90;;;;;;4919568;29;20437;-73
2022/08/17 11:59:58;;;;;;;18.95;8.60;;;9.80;99.90;;;;;;4914299;29;20399;-73
2022/08/17 12:02:37;;;;;;;29.88;13.02;;;9.70;99.90;;;;;;4921842;29;20389;-74
2022/08/17 12:05:16;;;;;;;28.00;13.10;;;9.70;99.90;;;;;;4912338;29;20477;-73
2022/08/17 12:07:50;;;;;;;28.08;12.02;;;9.60;99.90;;;;;;4976723;28;20381;-73
2022/08/17 12:10:30;;;;;;;22.90;10.73;;;9.60;99.90;;;;;;4992159;28;20418;-73
2022/08/17 12:13:00;;;;;;;29.67;10.45;;;9.60;99.90;;;;;;4987758;28;20429;-73
2022/08/17 12:15:33;;;;;;;26.40;10.05;;;9.50;99.90;;;;;;4988636;28;20453;-73
2022/08/17 12:18:00;;;;;;;24.42;10.30;;;9.50;99.90;;;;;;4992229;28;20729;-73
2022/08/17 12:20:33;;;;;;;28.83;11.75;;;9.50;99.90;;;;;;5001279;28;20391;-73
2022/08/17 12:23:23;;;;;;;23.33;11.23;;;9.40;99.90;;;;;;4991371;28;20369;-73
2022/08/17 12:26:01;;;;;;;24.88;10.70;;;9.40;99.90;;;;;;4991494;28;20801;-73
2022/08/17 12:28:35;;;;;;;27.80;11.27;;;9.30;99.90;;;;;;4991649;28;20543;-73
2022/08/17 12:31:23;;;;;;;25.77;10.23;;;9.30;99.90;;;;;;4991115;28;20405;-73
2022/08/17 12:33:51;;;;;;;26.25;11.10;;;9.30;99.90;;;;;;4991200;28;20376;-73
2022/08/17 12:36:24;;;;;;;33.35;11.00;;;9.20;99.90;;;;;;4974168;28;20387;-73
2022/08/17 12:39:01;;;;;;;31.13;12.20;;;9.20;99.90;;;;;;4991124;28;20475;-73
2022/08/17 12:41:35;;;;;;;27.90;11.77;;;9.10;99.90;;;;;;4982055;28;20467;-73
2022/08/17 12:44:04;;;;;;;26.75;12.18;;;9.00;99.90;;;;;;4990828;28;20428;-73
2022/08/17 12:46:44;;;;;;;27.67;11.35;;;9.00;99.90;;;;;;4991208;28;20467;-73
2022/08/17 12:49:24;;;;;;;21.63;10.10;;;9.00;99.90;;;;;;4990986;28;20421;-73
2022/08/17 12:51:58;;;;;;;22.70;8.93;;;8.90;99.90;;;;;;4990933;28;20392;-73
2022/08/17 12:54:37;;;;;;;23.60;9.85;;;8.90;99.90;;;;;;4991215;28;20376;-73
2022/08/17 12:57:11;;;;;;;20.75;9.38;;;8.80;99.90;;;;;;4991347;28;20385;-73
2022/08/17 12:59:44;;;;;;;20.63;6.80;;;8.80;99.90;;;;;;4990638;28;20388;-72
2022/08/17 13:02:27;;;;;;;13.70;5.97;;;8.80;99.90;;;;;;4991286;28;20443;-73
2022/08/17 13:04:56;;;;;;;17.02;5.90;;;8.80;99.90;;;;;;4990635;28;20820;-73
2022/08/17 13:07:32;;;;;;;20.67;5.53;;;8.80;99.90;;;;;;4991174;28;20388;-73
2022/08/17 13:09:59;;;;;;;15.80;5.53;;;8.70;99.90;;;;;;4977744;28;20487;-73
2022/08/17 13:12:28;;;;;;;16.13;5.60;;;8.70;99.90;;;;;;4985086;28;20486;-73
2022/08/17 13:14:56;;;;;;;17.17;5.40;;;8.70;99.90;;;;;;4983373;28;20864;-73
2022/08/17 13:17:30;;;;;;;17.00;5.38;;;8.70;99.90;;;;;;4990619;28;20399;-74
2022/08/17 13:19:57;;;;;;;16.40;5.50;;;8.60;99.90;;;;;;4990969;28;20405;-73
2022/08/17 13:22:27;;;;;;;15.35;5.30;;;8.60;99.90;;;;;;4990770;28;20377;-73
2022/08/17 13:24:59;;;;;;;14.13;5.18;;;8.60;99.90;;;;;;4973120;28;20686;-73
2022/08/17 13:27:29;;;;;;;11.25;5.20;;;8.50;99.90;;;;;;4990178;28;20389;-73
2022/08/17 13:30:04;;;;;;;13.85;4.93;;;8.50;99.90;;;;;;4990523;28;20409;-72
2022/08/17 13:32:31;;;;;;;16.42;5.63;;;8.50;99.90;;;;;;4990498;28;20393;-72
2022/08/17 13:35:05;;;;;;;17.52;5.80;;;8.40;99.90;;;;;;4990083;28;20436;-72
2022/08/17 13:37:35;;;;;;;14.95;5.60;;;8.30;99.90;;;;;;4990698;28;20389;-72
2022/08/17 13:40:08;;;;;;;14.88;5.95;;;8.30;99.90;;;;;;4990286;28;20412;-73
2022/08/17 13:42:38;;;;;;;16.65;6.07;;;8.30;99.90;;;;;;4990136;28;20421;-72
2022/08/17 13:45:30;;;;;;;15.75;6.30;;;8.30;99.90;;;;;;4993163;28;20421;-72
2022/08/17 13:48:09;;;;;;;17.20;6.53;;;8.30;99.90;;;;;;4994587;28;20503;-73
2022/08/17 13:50:40;;;;;;;19.30;6.00;;;8.30;99.90;;;;;;4994789;28;20534;-73
2022/08/17 13:53:25;;;;;;;20.17;6.32;;;8.20;99.90;;;;;;4977076;28;20471;-73